BLQ weather

Bologna Guglielmo Marconi Airport
Bologna, Emilia-Romagna, Italy

Public forecast

Using degrees Celsius for public forecast. Weather courtesy of forecast.io.

METAR (pilot weather report)

Retrieved 2018/09/24 08:50 UTC (16 minutes ago):

LIPE 240850Z 31005KT 240V340 CAVOK 25/18 Q1015

TAF (pilot weather forecast)

Retrieved 2018/09/24 06:43 UTC (2 hours ago):

TAF LIPE 240500Z 2406/2506 22008KT 9999 FEW040 BECMG 2408/2410 10016G28KT BECMG 2415/2417 12012KT BECMG 2422/2424 VRB05KT